Time;durP1;ratioP1;P1;durP2;ratioP2;P2;SDS_P1;SDS_P2;PMS_P1;PMS_P2;Temp;Humidity;BMP_temperature;BMP_pressure;BME280_temperature;BME280_humidity;BME280_pressure;Samples;Min_cycle;Max_cycle;Signal;HPM_P1;HPM_P2
2023/02/05 08:21:43;;;;;;;36.53;5.13;;;7.60;99.90;;;;;;4770979;30;20085;-94
2023/02/05 08:24:47;;;;;;;26.55;4.45;;;7.70;99.90;;;;;;4775522;29;20131;-95
2023/02/05 08:27:16;;;;;;;24.33;3.85;;;7.70;99.90;;;;;;4822934;29;20034;-93
2023/02/05 08:45:52;;;;;;;30.90;4.35;;;7.90;99.90;;;;;;5568907;23;20422;-87
2023/02/05 08:57:18;;;;;;;55.83;5.85;;;7.90;99.90;;;;;;4898317;29;20052;-94
2023/02/05 09:03:21;;;;;;;32.50;4.72;;;7.90;99.90;;;;;;4904826;23;20125;-94
2023/02/05 09:06:00;;;;;;;41.88;5.55;;;8.60;99.90;;;;;;4895192;29;20044;-93
2023/02/05 09:14:06;;;;;;;;;;;;;;;;;;;;;
2023/02/05 09:16:32;;;;;;;32.03;6.05;;;8.70;99.90;;;;;;4908489;29;20053;-92
2023/02/05 09:19:12;;;;;;;29.67;4.30;;;8.60;99.90;;;;;;4902166;29;20115;-93
2023/02/05 09:24:44;;;;;;;28.42;4.60;;;8.50;99.90;;;;;;4823315;29;20121;-93
2023/02/05 09:27:22;;;;;;;37.08;4.47;;;7.60;99.90;;;;;;4826092;29;20114;-92
2023/02/05 09:30:34;;;;;;;27.10;4.78;;;8.60;99.90;;;;;;4861944;23;20055;-91
2023/02/05 09:33:01;;;;;;;35.88;4.57;;;8.40;99.90;;;;;;4897016;29;20028;-93
2023/02/05 09:35:27;;;;;;;28.65;4.03;;;8.60;99.90;;;;;;5336814;23;20465;-92
2023/02/05 09:47:37;;;;;;;25.07;4.03;;;7.70;99.90;;;;;;4817761;29;20106;-94
2023/02/05 09:50:28;;;;;;;28.52;4.82;;;8.20;99.90;;;;;;4900297;29;20040;-94
2023/02/05 09:53:03;;;;;;;34.33;5.65;;;9.20;99.90;;;;;;4900933;29;20111;-92
2023/02/05 09:55:52;;;;;;;37.85;5.03;;;8.70;99.90;;;;;;5049715;23;20907;-91
2023/02/05 10:01:52;;;;;;;39.22;5.25;;;8.10;99.90;;;;;;4870548;29;20029;-93
2023/02/05 10:09:13;;;;;;;32.88;5.57;;;7.90;99.90;;;;;;4698919;30;20081;-92
2023/02/05 10:24:56;;;;;;;34.15;5.03;;;7.90;99.90;;;;;;5092139;23;20103;-90
2023/02/05 11:01:44;;;;;;;34.88;5.18;;;8.50;99.90;;;;;;3407176;23;20969;-93
2023/02/05 11:14:04;;;;;;;33.03;5.13;;;8.50;99.90;;;;;;5186491;23;20056;-91
2023/02/05 11:16:59;;;;;;;41.03;6.47;;;9.20;99.90;;;;;;4905545;23;20057;-92
2023/02/05 11:51:55;;;;;;;23.05;4.70;;;8.70;99.90;;;;;;5438567;23;20128;-90
2023/02/05 12:47:12;;;;;;;23.55;4.53;;;9.20;99.90;;;;;;4881533;29;20109;-89
2023/02/05 13:05:05;;;;;;;20.77;3.92;;;9.40;99.90;;;;;;5163607;23;20067;-90
2023/02/05 13:12:50;;;;;;;14.60;2.97;;;9.40;99.90;;;;;;5373439;23;20065;-93
2023/02/05 13:15:39;;;;;;;28.13;3.75;;;9.70;99.90;;;;;;4895365;29;20040;-93
2023/02/05 13:18:30;;;;;;;18.65;3.17;;;9.50;99.90;;;;;;4884737;29;20037;-91
2023/02/05 13:30:36;;;;;;;25.95;3.92;;;9.60;99.90;;;;;;4808018;29;20129;-90
2023/02/05 13:51:20;;;;;;;20.73;3.22;;;9.40;99.90;;;;;;4896041;29;20039;-90
2023/02/05 13:54:28;;;;;;;35.53;4.57;;;9.40;99.90;;;;;;4919734;23;20074;-91
2023/02/05 13:57:23;;;;;;;32.45;4.60;;;9.50;99.90;;;;;;4900358;29;20033;-91
2023/02/05 13:59:51;;;;;;;23.55;3.55;;;9.70;99.90;;;;;;4917932;23;20123;-91
2023/02/05 14:02:42;;;;;;;24.33;4.20;;;10.10;99.90;;;;;;4897618;29;20029;-89
2023/02/05 14:05:16;;;;;;;28.90;3.72;;;10.60;99.90;;;;;;4897535;29;20037;-89
2023/02/05 14:08:18;;;;;;;18.17;4.30;;;9.20;99.90;;;;;;4951638;23;20056;-89
2023/02/05 14:11:02;;;;;;;25.40;3.85;;;8.90;99.90;;;;;;4894600;29;20036;-89
2023/02/05 14:13:33;;;;;;;31.33;5.65;;;9.90;99.90;;;;;;4893840;29;20031;-89
2023/02/05 14:16:23;;;;;;;20.00;5.65;;;10.60;99.90;;;;;;4890400;29;20036;-89
2023/02/05 14:19:21;;;;;;;35.35;4.68;;;9.50;99.90;;;;;;4889349;29;20040;-91
2023/02/05 14:21:55;;;;;;;20.83;3.72;;;9.20;99.90;;;;;;4891099;29;20059;-92
2023/02/05 14:24:43;;;;;;;18.45;3.90;;;9.50;99.90;;;;;;4889575;29;20042;-91
2023/02/05 14:27:38;;;;;;;22.58;3.50;;;9.50;99.90;;;;;;4883458;29;20029;-92
2023/02/05 14:30:29;;;;;;;27.30;4.13;;;9.60;99.90;;;;;;4897688;29;20024;-90
2023/02/05 14:35:47;;;;;;;28.98;4.80;;;10.00;99.90;;;;;;4897307;29;20043;-92
2023/02/05 14:38:39;;;;;;;24.80;4.38;;;9.80;99.90;;;;;;4890759;29;20044;-90
2023/02/05 14:41:11;;;;;;;26.48;4.55;;;10.20;99.90;;;;;;4899335;29;20493;-91
2023/02/05 14:43:39;;;;;;;37.13;5.05;;;9.60;99.90;;;;;;4900870;29;20028;-91
2023/02/05 14:46:36;;;;;;;28.40;4.45;;;9.70;99.90;;;;;;4901513;29;20032;-90
2023/02/05 14:49:04;;;;;;;25.73;4.78;;;9.50;99.90;;;;;;4900655;29;20157;-90
2023/02/05 14:52:11;;;;;;;31.35;4.10;;;9.70;99.90;;;;;;4908375;29;20056;-92
2023/02/05 14:54:47;;;;;;;31.98;5.15;;;9.10;99.90;;;;;;4901164;29;20134;-90
2023/02/05 14:58:03;;;;;;;35.22;4.70;;;9.90;99.90;;;;;;4899749;29;20029;-90
2023/02/05 15:00:58;;;;;;;25.38;4.22;;;9.50;99.90;;;;;;4889826;29;20028;-91
2023/02/05 15:03:44;;;;;;;28.75;4.47;;;9.50;99.90;;;;;;4900145;29;20118;-91
2023/02/05 15:06:16;;;;;;;24.23;3.97;;;9.20;99.90;;;;;;4900011;29;20065;-91
2023/02/05 15:09:22;;;;;;;28.58;5.18;;;9.90;99.90;;;;;;4900779;29;20045;-90
2023/02/05 15:12:16;;;;;;;29.92;5.22;;;9.40;99.90;;;;;;4888972;29;20024;-91
2023/02/05 15:14:54;;;;;;;23.95;4.68;;;9.90;99.90;;;;;;4900341;29;20025;-90
2023/02/05 15:17:31;;;;;;;26.30;4.53;;;9.40;99.90;;;;;;4899501;29;20044;-90
2023/02/05 15:20:19;;;;;;;32.70;5.57;;;9.80;99.90;;;;;;4889344;29;20020;-91
2023/02/05 15:23:41;;;;;;;32.85;5.72;;;9.60;99.90;;;;;;4900388;29;20033;-89
2023/02/05 15:26:48;;;;;;;32.85;5.43;;;9.30;99.90;;;;;;4889039;29;20088;-89
2023/02/05 15:29:39;;;;;;;37.28;4.97;;;9.30;99.90;;;;;;4853884;29;20044;-90
2023/02/05 15:32:16;;;;;;;26.98;5.13;;;9.40;99.90;;;;;;4908713;29;20096;-87
2023/02/05 15:34:47;;;;;;;32.55;4.85;;;9.90;99.50;;;;;;4904458;29;20116;-90
2023/02/05 15:37:37;;;;;;;36.92;5.65;;;9.10;99.90;;;;;;4899421;29;20024;-91
2023/02/05 15:40:17;;;;;;;35.30;6.27;;;8.70;99.90;;;;;;4898973;29;20084;-90
2023/02/05 15:42:49;;;;;;;40.17;5.13;;;9.50;99.90;;;;;;4890421;29;20021;-90
2023/02/05 15:45:17;;;;;;;25.48;4.50;;;9.10;99.90;;;;;;4907278;29;20116;-89
2023/02/05 15:47:59;;;;;;;30.17;5.13;;;9.30;99.90;;;;;;4899211;29;20036;-90
2023/02/05 15:50:25;;;;;;;40.78;5.47;;;9.60;99.90;;;;;;4899419;29;20051;-89
2023/02/05 15:52:51;;;;;;;30.15;4.97;;;9.50;99.90;;;;;;4898320;29;20077;-88
2023/02/05 15:55:20;;;;;;;27.98;4.28;;;8.90;99.90;;;;;;4896572;29;20025;-89
2023/02/05 15:57:47;;;;;;;30.60;4.93;;;8.80;99.90;;;;;;4887270;29;20037;-89
2023/02/05 16:03:32;;;;;;;29.55;5.18;;;8.40;99.90;;;;;;4865473;29;20032;-92
2023/02/05 16:13:11;;;;;;;24.45;4.88;;;8.80;99.90;;;;;;4922394;23;20064;-89
2023/02/05 16:16:22;;;;;;;41.38;6.03;;;8.70;99.90;;;;;;4898852;29;20052;-91
2023/02/05 16:19:32;;;;;;;49.97;6.25;;;8.70;99.90;;;;;;4913062;23;20023;-91
2023/02/05 16:22:13;;;;;;;37.40;5.63;;;9.00;99.90;;;;;;4891198;29;20044;-92
2023/02/05 16:24:43;;;;;;;39.35;6.63;;;9.10;99.90;;;;;;4895119;29;20124;-88
2023/02/05 16:27:19;;;;;;;34.83;5.07;;;9.40;99.90;;;;;;4888019;29;20040;-88
2023/02/05 16:36:19;;;;;;;31.67;6.13;;;8.50;99.90;;;;;;5626809;23;20072;-92
2023/02/05 16:39:01;;;;;;;39.85;5.57;;;8.90;99.90;;;;;;4890541;29;20041;-89
2023/02/05 16:41:42;;;;;;;26.42;5.32;;;8.90;99.90;;;;;;4896616;29;20079;-89
2023/02/05 16:44:24;;;;;;;;;;;8.90;99.90;;;;;;4905779;29;20069;-92
2023/02/05 16:47:17;;;;;;;54.00;6.90;;;9.00;99.90;;;;;;4899507;29;19908;-91
2023/02/05 16:49:47;;;;;;;35.20;6.63;;;8.40;99.90;;;;;;4891742;29;20028;-92
2023/02/05 16:52:33;;;;;;;38.95;5.43;;;9.00;99.90;;;;;;4901677;29;20036;-91
2023/02/05 16:55:29;;;;;;;29.63;6.00;;;8.50;99.90;;;;;;4889945;29;20040;-91
2023/02/05 16:58:04;;;;;;;37.53;5.55;;;8.40;99.90;;;;;;4890709;29;20104;-91
2023/02/05 17:00:30;;;;;;;32.40;4.78;;;8.40;99.90;;;;;;4892108;29;20055;-90
2023/02/05 17:03:15;;;;;;;35.47;5.75;;;8.80;99.90;;;;;;4898477;29;20084;-90
2023/02/05 17:05:41;;;;;;;38.70;5.53;;;8.60;99.90;;;;;;4897363;29;20295;-90
2023/02/05 17:08:17;;;;;;;38.95;6.47;;;8.20;99.90;;;;;;4898144;29;20024;-90
2023/02/05 17:11:11;;;;;;;42.45;6.28;;;8.70;99.90;;;;;;4896464;29;20040;-90
2023/02/05 17:13:42;;;;;;;39.97;4.95;;;8.30;99.90;;;;;;4895702;29;20037;-90
2023/02/05 17:16:40;;;;;;;33.15;5.25;;;8.40;99.90;;;;;;4896538;29;20073;-92
2023/02/05 17:19:25;;;;;;;44.50;6.53;;;8.30;99.90;;;;;;4823369;29;20037;-90
2023/02/05 17:22:13;;;;;;;36.60;5.65;;;8.30;99.90;;;;;;4896716;29;20024;-89
2023/02/05 17:24:39;;;;;;;42.92;6.88;;;8.30;99.90;;;;;;4896557;29;20032;-91
2023/02/05 17:27:16;;;;;;;42.45;6.13;;;9.00;99.90;;;;;;4898954;29;20048;-90
2023/02/05 17:29:43;;;;;;;33.90;5.90;;;8.20;99.90;;;;;;4908483;29;20032;-90
2023/02/05 17:32:17;;;;;;;37.67;5.15;;;8.20;99.90;;;;;;4917058;29;20064;-90
2023/02/05 17:34:44;;;;;;;37.67;6.72;;;8.80;99.90;;;;;;4900915;29;20037;-93
2023/02/05 17:37:37;;;;;;;37.33;6.20;;;8.40;99.90;;;;;;4898555;29;20040;-91
2023/02/05 17:40:02;;;;;;;38.92;6.10;;;7.70;99.90;;;;;;4894800;29;20060;-91
2023/02/05 17:42:54;;;;;;;37.90;5.60;;;8.10;99.90;;;;;;4897112;29;20497;-91
2023/02/05 17:45:42;;;;;;;45.65;6.22;;;7.40;99.90;;;;;;4888517;29;20206;-91
2023/02/05 17:48:09;;;;;;;35.25;5.53;;;8.50;99.90;;;;;;4894003;29;20036;-91
2023/02/05 17:50:35;;;;;;;39.25;6.60;;;8.50;99.90;;;;;;4891804;29;20099;-91
2023/02/05 17:53:02;;;;;;;40.40;6.28;;;7.90;99.90;;;;;;4892876;29;20477;-90
2023/02/05 17:55:28;;;;;;;34.22;6.18;;;9.10;99.90;;;;;;4890392;29;20052;-91
2023/02/05 17:57:54;;;;;;;33.05;5.43;;;8.40;99.90;;;;;;4894969;29;20528;-92
2023/02/05 18:00:31;;;;;;;31.25;6.22;;;8.50;99.90;;;;;;4892595;29;20119;-92
2023/02/05 18:02:56;;;;;;;46.65;7.10;;;8.00;99.90;;;;;;4890324;29;20489;-92
2023/02/05 18:05:22;;;;;;;26.25;6.70;;;8.00;99.90;;;;;;4891565;29;20120;-93
2023/02/05 18:07:55;;;;;;;38.75;5.10;;;8.40;99.90;;;;;;4888120;29;20065;-92
2023/02/05 18:10:23;;;;;;;43.85;6.63;;;8.00;99.90;;;;;;4888271;29;20033;-92
2023/02/05 18:12:50;;;;;;;41.60;5.88;;;8.00;99.90;;;;;;4894719;23;20507;-92
2023/02/05 18:15:15;;;;;;;42.22;5.85;;;8.40;99.90;;;;;;4892362;29;20107;-93
2023/02/05 18:17:41;;;;;;;47.10;6.22;;;8.10;99.90;;;;;;4898535;29;20479;-91
2023/02/05 18:20:08;;;;;;;39.35;5.88;;;8.50;99.90;;;;;;4912512;29;20039;-89
2023/02/05 18:22:43;;;;;;;50.13;6.50;;;8.10;99.90;;;;;;4902076;29;20076;-92
2023/02/05 18:25:09;;;;;;;52.05;6.63;;;8.20;99.90;;;;;;4906616;29;20033;-91
2023/02/05 18:27:34;;;;;;;45.75;5.68;;;9.30;99.90;;;;;;4891832;29;20623;-90
2023/02/05 18:30:00;;;;;;;48.42;5.97;;;8.70;99.90;;;;;;4886402;29;20029;-92
2023/02/05 18:32:26;;;;;;;27.98;5.65;;;8.10;99.90;;;;;;4889290;29;20037;-89
2023/02/05 18:34:52;;;;;;;31.48;5.28;;;8.20;99.90;;;;;;4894590;29;20033;-89
2023/02/05 18:37:25;;;;;;;44.50;5.40;;;8.50;99.90;;;;;;4888204;29;20017;-92
2023/02/05 18:39:55;;;;;;;31.80;4.60;;;8.00;99.90;;;;;;4889656;29;20069;-92
2023/02/05 18:42:22;;;;;;;41.65;5.97;;;8.10;99.90;;;;;;4885359;29;20029;-91
2023/02/05 18:44:47;;;;;;;41.05;8.00;;;8.30;99.90;;;;;;4889616;29;20063;-90
2023/02/05 18:47:13;;;;;;;44.92;6.85;;;9.10;99.90;;;;;;4895337;29;20104;-90
2023/02/05 18:49:38;;;;;;;41.70;6.75;;;8.40;99.90;;;;;;4894672;29;20470;-92
2023/02/05 18:52:05;;;;;;;32.03;5.80;;;7.80;99.90;;;;;;4897283;29;20138;-92
2023/02/05 18:54:31;;;;;;;33.85;6.03;;;8.40;99.90;;;;;;4894700;29;20180;-91
2023/02/05 18:56:57;;;;;;;33.15;5.55;;;8.60;99.90;;;;;;4891724;29;20025;-91
2023/02/05 18:59:24;;;;;;;42.65;5.90;;;8.40;99.90;;;;;;4887488;29;20036;-91
2023/02/05 19:01:56;;;;;;;44.00;7.18;;;8.40;99.90;;;;;;4891963;29;20060;-92
2023/02/05 19:04:23;;;;;;;34.85;5.72;;;8.10;99.90;;;;;;4897113;29;20484;-91
2023/02/05 19:06:52;;;;;;;46.30;6.38;;;8.20;99.90;;;;;;4897982;29;20472;-92
2023/02/05 19:09:23;;;;;;;41.85;6.80;;;7.70;99.90;;;;;;4894358;29;20037;-93
2023/02/05 19:11:49;;;;;;;38.88;5.43;;;7.70;99.90;;;;;;4885737;29;20131;-92
2023/02/05 19:14:26;;;;;;;46.47;6.55;;;8.30;99.90;;;;;;4898333;29;20028;-92
2023/02/05 19:16:52;;;;;;;46.30;6.47;;;7.70;99.90;;;;;;4909908;29;20029;-91
2023/02/05 19:19:30;;;;;;;34.90;6.47;;;8.20;99.90;;;;;;4895518;29;20460;-91
2023/02/05 19:22:00;;;;;;;53.05;6.38;;;7.60;99.90;;;;;;4896163;29;20033;-89
2023/02/05 19:24:26;;;;;;;;;;;8.00;99.90;;;;;;4897490;29;20389;-92
2023/02/05 19:26:55;;;;;;;30.95;5.45;;;8.00;99.90;;;;;;4897793;29;20375;-92
2023/02/05 19:29:29;;;;;;;33.90;6.55;;;7.50;99.90;;;;;;4901080;29;20040;-93
2023/02/05 19:31:57;;;;;;;43.28;5.57;;;7.90;99.90;;;;;;4901016;29;20028;-91
2023/02/05 19:34:23;;;;;;;39.53;5.70;;;7.90;99.90;;;;;;4900859;29;20168;-90
2023/02/05 19:36:49;;;;;;;34.78;5.40;;;8.30;99.90;;;;;;4901142;29;20021;-91
2023/02/05 19:39:15;;;;;;;40.25;5.85;;;7.90;99.90;;;;;;4899994;29;20033;-91
2023/02/05 19:41:44;;;;;;;35.80;5.15;;;7.90;99.90;;;;;;4900753;29;20020;-90
2023/02/05 19:44:10;;;;;;;35.10;5.95;;;7.70;99.90;;;;;;4907460;29;20381;-90
2023/02/05 19:46:40;;;;;;;45.20;5.78;;;7.80;99.90;;;;;;4900289;29;20032;-90
2023/02/05 19:49:09;;;;;;;;;;;7.00;99.90;;;;;;4900665;29;20456;-92
2023/02/05 19:51:34;;;;;;;38.70;6.05;;;7.70;99.90;;;;;;4900399;29;20349;-91
2023/02/05 19:54:05;;;;;;;37.40;5.85;;;7.20;99.90;;;;;;4900737;29;20115;-91
2023/02/05 19:56:36;;;;;;;40.78;6.20;;;8.40;99.90;;;;;;4901357;29;20035;-91
2023/02/05 19:59:03;;;;;;;31.42;5.60;;;7.70;99.90;;;;;;4899618;29;20033;-93
2023/02/05 20:01:43;;;;;;;35.42;5.70;;;7.60;99.90;;;;;;4900400;29;20032;-90
2023/02/05 20:04:10;;;;;;;47.47;6.88;;;7.60;99.90;;;;;;4887993;29;20033;-92
2023/02/05 20:06:36;;;;;;;45.55;6.60;;;7.70;99.90;;;;;;4902381;29;20076;-90
2023/02/05 20:09:08;;;;;;;45.03;9.00;;;7.70;99.90;;;;;;4917989;29;20052;-92
2023/02/05 20:11:35;;;;;;;34.53;5.50;;;7.10;99.90;;;;;;4915664;29;20115;-92
2023/02/05 20:14:02;;;;;;;37.70;6.10;;;7.90;99.90;;;;;;4895666;29;20040;-92
2023/02/05 20:16:30;;;;;;;42.90;6.35;;;7.70;99.90;;;;;;4894600;29;20029;-92
2023/02/05 20:18:57;;;;;;;38.10;5.50;;;7.60;99.90;;;;;;4894881;29;20020;-91
2023/02/05 20:21:25;;;;;;;35.45;5.40;;;7.60;99.90;;;;;;4889508;29;20577;-91
2023/02/05 20:23:51;;;;;;;39.78;6.25;;;7.00;99.90;;;;;;4888865;29;20489;-94
2023/02/05 20:26:20;;;;;;;37.72;6.40;;;7.30;99.90;;;;;;4898319;29;20024;-92
2023/02/05 20:31:54;;;;;;;31.42;5.35;;;7.80;99.90;;;;;;4890931;29;20047;-93
2023/02/05 20:34:24;;;;;;;40.13;6.85;;;7.20;99.90;;;;;;4899731;29;20025;-94
2023/02/05 20:36:52;;;;;;;52.65;6.28;;;7.30;99.90;;;;;;4900317;29;20021;-94
2023/02/05 20:39:23;;;;;;;33.45;4.75;;;7.40;99.90;;;;;;4899536;29;20096;-94
2023/02/05 20:41:50;;;;;;;41.70;6.88;;;7.40;99.90;;;;;;4899979;29;20032;-94
2023/02/05 20:44:16;;;;;;;34.00;7.90;;;7.30;99.90;;;;;;4899556;29;20092;-91
2023/02/05 20:46:53;;;;;;;43.30;7.78;;;7.10;99.90;;;;;;4899864;29;20032;-92
2023/02/05 20:49:25;;;;;;;35.90;7.57;;;7.20;99.90;;;;;;4898891;29;20059;-93
2023/02/05 20:51:52;;;;;;;42.10;6.15;;;7.20;99.90;;;;;;4900523;29;20031;-94
2023/02/05 20:54:17;;;;;;;38.28;6.28;;;7.00;99.90;;;;;;4900184;29;20380;-94
2023/02/05 20:56:43;;;;;;;35.45;6.35;;;7.30;99.90;;;;;;4900053;29;20107;-94
2023/02/05 20:59:10;;;;;;;37.40;6.07;;;7.10;99.90;;;;;;4899657;29;20031;-94
2023/02/05 21:01:37;;;;;;;37.15;7.10;;;6.90;99.90;;;;;;4900599;29;20388;-92
2023/02/05 21:04:06;;;;;;;35.08;6.65;;;7.30;99.90;;;;;;4911186;29;20065;-93
2023/02/05 21:06:34;;;;;;;34.40;5.93;;;7.20;99.90;;;;;;4901341;29;20029;-94
2023/02/05 21:09:00;;;;;;;45.63;6.90;;;6.80;99.90;;;;;;4967177;23;20060;-93
2023/02/05 21:11:27;;;;;;;37.83;6.22;;;7.80;99.90;;;;;;4906803;29;20024;-94
2023/02/05 21:14:05;;;;;;;43.13;7.15;;;7.70;99.90;;;;;;4900513;29;20025;-93
2023/02/05 21:16:45;;;;;;;33.65;7.07;;;6.70;99.90;;;;;;4900027;29;20036;-94
2023/02/05 21:19:17;;;;;;;39.63;6.27;;;7.10;99.90;;;;;;4900008;29;20111;-94
2023/02/05 21:21:42;;;;;;;33.03;6.25;;;6.30;99.90;;;;;;4896324;29;20060;-94
2023/02/05 21:24:12;;;;;;;38.30;6.45;;;7.10;99.90;;;;;;4883472;29;20071;-94
2023/02/05 21:26:40;;;;;;;35.13;6.97;;;7.10;99.90;;;;;;4881915;29;20025;-93
2023/02/05 21:29:13;;;;;;;39.88;6.55;;;7.10;99.90;;;;;;4886497;29;20039;-93
2023/02/05 21:31:56;;;;;;;33.83;5.72;;;7.30;99.90;;;;;;4891113;29;20490;-94
2023/02/05 21:34:25;;;;;;;35.47;5.93;;;6.20;99.90;;;;;;4899062;29;20032;-95
2023/02/05 21:37:06;;;;;;;34.45;5.65;;;6.00;99.90;;;;;;4887869;29;20512;-94
2023/02/05 21:39:42;;;;;;;42.00;6.35;;;7.20;99.90;;;;;;4884952;29;20025;-93
2023/02/05 21:42:08;;;;;;;35.08;5.93;;;6.70;99.90;;;;;;4888145;29;20136;-93
2023/02/05 21:44:33;;;;;;;26.73;5.10;;;7.40;99.90;;;;;;4890792;29;20536;-94
2023/02/05 21:46:59;;;;;;;34.75;6.95;;;7.20;99.90;;;;;;4901854;29;20127;-92
2023/02/05 21:49:24;;;;;;;40.53;6.32;;;8.10;99.90;;;;;;4893447;29;20093;-94
2023/02/05 21:51:52;;;;;;;41.22;6.88;;;7.30;99.90;;;;;;4880381;29;20060;-92
2023/02/05 21:54:22;;;;;;;42.53;7.05;;;6.40;99.90;;;;;;4885569;29;20035;-92
2023/02/05 21:56:48;;;;;;;31.65;6.65;;;7.60;99.90;;;;;;4913840;29;20024;-93
2023/02/05 21:59:19;;;;;;;40.97;7.10;;;6.90;99.90;;;;;;4898950;29;20477;-93
2023/02/05 22:01:45;;;;;;;35.35;6.82;;;6.60;99.90;;;;;;4898862;29;20028;-93
2023/02/05 22:04:13;;;;;;;32.08;6.78;;;7.00;99.90;;;;;;4898621;29;20095;-93
2023/02/05 22:06:40;;;;;;;29.55;6.20;;;7.00;99.90;;;;;;4897953;29;20032;-93
2023/02/05 22:09:08;;;;;;;31.30;6.05;;;7.20;99.90;;;;;;4898069;29;20049;-93
2023/02/05 22:11:34;;;;;;;43.78;8.07;;;7.40;99.90;;;;;;4898834;29;20493;-92
2023/02/05 22:14:00;;;;;;;42.03;6.97;;;7.20;99.90;;;;;;4899065;29;20039;-92
2023/02/05 22:16:31;;;;;;;34.28;5.65;;;6.20;99.90;;;;;;4885944;29;20028;-93
2023/02/05 22:18:58;;;;;;;34.85;6.15;;;7.00;99.90;;;;;;4880180;29;20048;-92
2023/02/05 22:21:29;;;;;;;42.97;6.18;;;7.10;99.90;;;;;;4879781;29;20033;-93
2023/02/05 22:23:58;;;;;;;37.22;6.15;;;6.20;99.90;;;;;;4881422;29;20062;-93
2023/02/05 22:26:27;;;;;;;32.70;6.70;;;6.40;99.90;;;;;;4896060;29;20124;-93
2023/02/05 22:28:54;;;;;;;40.40;6.88;;;6.40;99.90;;;;;;4916924;29;20055;-92
2023/02/05 22:34:01;;;;;;;33.65;6.15;;;6.50;99.90;;;;;;5163776;23;20053;-91
2023/02/05 22:36:29;;;;;;;37.55;6.20;;;6.80;99.90;;;;;;4897824;29;20039;-92
2023/02/05 22:38:55;;;;;;;35.63;6.43;;;6.60;99.90;;;;;;4898458;29;20032;-92
2023/02/05 22:41:25;;;;;;;42.67;8.85;;;6.40;99.90;;;;;;4897277;29;20029;-91
2023/02/05 22:43:52;;;;;;;47.72;8.77;;;6.90;99.90;;;;;;4898262;29;20053;-93
2023/02/05 22:46:20;;;;;;;38.22;6.65;;;7.10;99.90;;;;;;4897691;29;20156;-91
2023/02/05 22:48:47;;;;;;;36.08;6.82;;;6.90;99.90;;;;;;4895671;29;20040;-91
2023/02/05 22:51:22;;;;;;;32.92;7.13;;;7.20;99.90;;;;;;4905286;29;20119;-92
2023/02/05 22:53:48;;;;;;;43.40;5.90;;;6.60;99.90;;;;;;4879258;29;20029;-91
2023/02/05 22:56:26;;;;;;;40.33;6.53;;;6.90;99.90;;;;;;4884239;29;20024;-90
2023/02/05 22:58:52;;;;;;;34.95;7.68;;;6.50;99.90;;;;;;4891231;29;20038;-90
2023/02/05 23:01:21;;;;;;;48.05;6.40;;;7.20;99.90;;;;;;4879349;29;20033;-91
2023/02/05 23:03:48;;;;;;;33.88;6.00;;;7.00;99.90;;;;;;4881856;29;20033;-91
2023/02/05 23:06:41;;;;;;;39.75;6.65;;;7.30;99.90;;;;;;4882545;29;20029;-90
2023/02/05 23:09:13;;;;;;;25.77;5.88;;;6.60;99.90;;;;;;4882048;29;20467;-90
2023/02/05 23:11:48;;;;;;;29.42;5.38;;;7.20;99.90;;;;;;4882758;29;20481;-92
2023/02/05 23:14:16;;;;;;;42.45;7.05;;;6.30;99.90;;;;;;4882424;29;20563;-91
2023/02/05 23:16:43;;;;;;;33.15;6.07;;;6.70;99.90;;;;;;4882088;29;20053;-91
2023/02/05 23:19:12;;;;;;;39.72;5.95;;;7.10;99.90;;;;;;4882142;29;20032;-91
2023/02/05 23:21:45;;;;;;;42.33;6.70;;;7.20;99.90;;;;;;4882195;29;20029;-92
2023/02/05 23:24:11;;;;;;;40.58;6.20;;;5.50;99.90;;;;;;4881722;29;20404;-91
2023/02/05 23:26:41;;;;;;;28.05;5.28;;;7.10;99.90;;;;;;4882575;29;20037;-92
2023/02/05 23:29:08;;;;;;;31.42;6.13;;;6.20;99.90;;;;;;4882453;29;20116;-92
2023/02/05 23:31:35;;;;;;;36.22;6.63;;;6.80;99.90;;;;;;4881943;29;20040;-93
2023/02/05 23:34:06;;;;;;;34.97;7.07;;;7.40;99.90;;;;;;4882366;29;20064;-92
2023/02/05 23:36:32;;;;;;;34.90;7.75;;;6.30;99.90;;;;;;4881994;29;20029;-93
2023/02/05 23:38:58;;;;;;;32.28;5.90;;;6.90;99.90;;;;;;4882635;29;20036;-92
2023/02/05 23:41:36;;;;;;;37.63;6.13;;;7.10;99.90;;;;;;4882706;29;20053;-92
2023/02/05 23:44:12;;;;;;;40.13;7.63;;;7.30;99.90;;;;;;4891289;29;20041;-93
2023/02/05 23:46:39;;;;;;;31.20;6.00;;;6.60;99.90;;;;;;4882263;29;20066;-93
2023/02/05 23:49:05;;;;;;;32.95;5.40;;;7.00;99.90;;;;;;4881964;29;20377;-92
2023/02/05 23:51:31;;;;;;;38.95;7.78;;;7.00;99.90;;;;;;4881767;29;20025;-93
2023/02/05 23:53:58;;;;;;;45.50;6.85;;;7.10;99.90;;;;;;4882156;29;20028;-92
2023/02/05 23:56:23;;;;;;;31.65;5.75;;;7.10;99.90;;;;;;4894022;29;20017;-91
2023/02/05 23:58:50;;;;;;;45.38;6.53;;;6.60;99.90;;;;;;4886809;29;20069;-92
